sensor_id;sensor_type;location;lat;lon;timestamp;pressure;altitude;pressure_sealevel;temperature;humidity
70943;BME280;59154;51.970;5.650;2023-02-28T00:00:04;103100;;;2.57813;80.5
70943;BME280;59154;51.970;5.650;2023-02-28T00:05:03;103100;;;2.61372;80.3
70943;BME280;59154;51.970;5.650;2023-02-28T00:10:05;103100;;;2.69;80.1
70943;BME280;59154;51.970;5.650;2023-02-28T00:15:06;103100;;;2.7917;79.9
70943;BME280;59154;51.970;5.650;2023-02-28T00:20:05;103100;;;2.69509;80.1
70943;BME280;59154;51.970;5.650;2023-02-28T00:25:03;103100;;;2.90866;79.4
70943;BME280;59154;51.970;5.650;2023-02-28T00:30:05;103100;;;2.97985;79.1
70943;BME280;59154;51.970;5.650;2023-02-28T00:35:03;103100;;;3.11207;78.5
70943;BME280;59154;51.970;5.650;2023-02-28T00:40:04;103100;;;3.18835;78.4
70943;BME280;59154;51.970;5.650;2023-02-28T00:45:03;103100;;;3.13241;78.5
70943;BME280;59154;51.970;5.650;2023-02-28T00:50:03;103100;;;3.20869;78.1
70943;BME280;59154;51.970;5.650;2023-02-28T00:55:04;103100;;;3.22903;78.3
70943;BME280;59154;51.970;5.650;2023-02-28T01:00:04;103100;;;3.23411;78.1
70943;BME280;59154;51.970;5.650;2023-02-28T01:05:03;103100;;;3.18326;77.9
70943;BME280;59154;51.970;5.650;2023-02-28T01:10:04;103100;;;3.27479;77.5
70943;BME280;59154;51.970;5.650;2023-02-28T01:15:03;103100;;;3.45278;77.5
70943;BME280;59154;51.970;5.650;2023-02-28T01:20:04;103100;;;3.45278;77.3
70943;BME280;59154;51.970;5.650;2023-02-28T01:25:02;103100;;;3.41718;77.5
70943;BME280;59154;51.970;5.650;2023-02-28T01:30:03;103100;;;3.47312;77.8
70943;BME280;59154;51.970;5.650;2023-02-28T01:35:02;103100;;;3.53414;78.0
70943;BME280;59154;51.970;5.650;2023-02-28T01:40:04;103100;;;3.37141;78.8
70943;BME280;59154;51.970;5.650;2023-02-28T01:45:18;103100;;;3.25954;79.5
70943;BME280;59154;51.970;5.650;2023-02-28T01:50:07;103100;;;3.28497;79.4
70943;BME280;59154;51.970;5.650;2023-02-28T01:55:05;103100;;;3.38667;79.1
70943;BME280;59154;51.970;5.650;2023-02-28T02:00:08;103100;;;3.45278;78.9
70943;BME280;59154;51.970;5.650;2023-02-28T02:05:04;103100;;;3.50363;78.4
70943;BME280;59154;51.970;5.650;2023-02-28T02:10:06;103100;;;3.52905;78.2
70943;BME280;59154;51.970;5.650;2023-02-28T02:15:07;103100;;;3.52905;78.0
70943;BME280;59154;51.970;5.650;2023-02-28T02:20:56;103100;;;3.57991;77.7
70943;BME280;59154;51.970;5.650;2023-02-28T02:25:13;103100;;;3.67144;77.4
70943;BME280;59154;51.970;5.650;2023-02-28T02:30:26;103100;;;3.6867;77.6
70943;BME280;59154;51.970;5.650;2023-02-28T02:35:11;103100;;;3.88502;77.2
70943;BME280;59154;51.970;5.650;2023-02-28T02:40:10;103100;;;3.84434;77.0
70943;BME280;59154;51.970;5.650;2023-02-28T02:45:06;103100;;;3.85451;76.8
70943;BME280;59154;51.970;5.650;2023-02-28T02:50:05;103100;;;3.94096;76.2
70943;BME280;59154;51.970;5.650;2023-02-28T02:55:04;103100;;;3.87485;76.5
70943;BME280;59154;51.970;5.650;2023-02-28T03:00:05;103100;;;3.6867;76.6
70943;BME280;59154;51.970;5.650;2023-02-28T03:05:05;103100;;;3.67144;76.9
70943;BME280;59154;51.970;5.650;2023-02-28T03:10:28;103100;;;3.70704;77.0
70943;BME280;59154;51.970;5.650;2023-02-28T03:15:08;103100;;;3.67652;77.2
70943;BME280;59154;51.970;5.650;2023-02-28T03:20:09;103100;;;3.46295;77.9
70943;BME280;59154;51.970;5.650;2023-02-28T03:25:07;103100;;;3.67652;78.1
70943;BME280;59154;51.970;5.650;2023-02-28T03:30:09;103100;;;3.69687;77.6
70943;BME280;59154;51.970;5.650;2023-02-28T03:35:07;103100;;;3.7884;76.9
70943;BME280;59154;51.970;5.650;2023-02-28T03:40:06;103100;;;3.64601;76.9
70943;BME280;59154;51.970;5.650;2023-02-28T03:45:05;103100;;;3.69178;77.2
70943;BME280;59154;51.970;5.650;2023-02-28T03:50:06;103100;;;3.66127;76.8
70943;BME280;59154;51.970;5.650;2023-02-28T03:55:07;103100;;;3.5138;76.6
70943;BME280;59154;51.970;5.650;2023-02-28T04:00:06;103100;;;3.3765;76.3
70943;BME280;59154;51.970;5.650;2023-02-28T04:05:03;103100;;;3.33582;74.2
70943;BME280;59154;51.970;5.650;2023-02-28T04:10:05;103100;;;3.30022;72.5
70943;BME280;59154;51.970;5.650;2023-02-28T04:15:02;103100;;;3.3409;72.5
70943;BME280;59154;51.970;5.650;2023-02-28T04:20:04;103100;;;3.2036;72.6
70943;BME280;59154;51.970;5.650;2023-02-28T04:25:03;103100;;;3.27479;73.5
70943;BME280;59154;51.970;5.650;2023-02-28T04:30:08;103100;;;3.21377;74.1
70943;BME280;59154;51.970;5.650;2023-02-28T04:35:02;103100;;;3.32565;73.8
70943;BME280;59154;51.970;5.650;2023-02-28T04:40:04;103100;;;3.14767;74.1
70943;BME280;59154;51.970;5.650;2023-02-28T04:45:04;103100;;;3.2036;73.5
70943;BME280;59154;51.970;5.650;2023-02-28T04:50:04;103100;;;3.18326;73.4
70943;BME280;59154;51.970;5.650;2023-02-28T04:55:03;103100;;;3.05613;73.8
70943;BME280;59154;51.970;5.650;2023-02-28T05:00:04;103100;;;3.18326;74.0
70943;BME280;59154;51.970;5.650;2023-02-28T05:05:03;103100;;;2.99511;75.5
70943;BME280;59154;51.970;5.650;2023-02-28T05:10:03;103100;;;2.99511;75.9
70943;BME280;59154;51.970;5.650;2023-02-28T05:15:03;103100;;;3.01037;75.7
70943;BME280;59154;51.970;5.650;2023-02-28T05:20:03;103100;;;3.00528;75.8
70943;BME280;59154;51.970;5.650;2023-02-28T05:25:03;103100;;;3.27479;75.4
70943;BME280;59154;51.970;5.650;2023-02-28T05:30:04;103100;;;3.09173;75.9
70943;BME280;59154;51.970;5.650;2023-02-28T05:35:03;103100;;;2.88832;76.8
70943;BME280;59154;51.970;5.650;2023-02-28T05:40:03;103100;;;2.88324;78.7
70943;BME280;59154;51.970;5.650;2023-02-28T05:45:03;103100;;;3.1375;76.4
70943;BME280;59154;51.970;5.650;2023-02-28T05:50:04;103100;;;3.21377;76.0
70943;BME280;59154;51.970;5.650;2023-02-28T05:55:02;103100;;;3.3765;75.8
70943;BME280;59154;51.970;5.650;2023-02-28T06:00:04;103100;;;3.49346;75.2
70943;BME280;59154;51.970;5.650;2023-02-28T06:05:02;103100;;;3.6511;74.8
70943;BME280;59154;51.970;5.650;2023-02-28T06:10:03;103100;;;3.59516;75.6
70943;BME280;59154;51.970;5.650;2023-02-28T06:15:03;103100;;;3.56974;76.0
70943;BME280;59154;51.970;5.650;2023-02-28T06:20:04;103100;;;3.6155;76.2
70943;BME280;59154;51.970;5.650;2023-02-28T06:25:02;103100;;;3.66635;76.0
70943;BME280;59154;51.970;5.650;2023-02-28T06:30:03;103100;;;3.66635;76.7
70943;BME280;59154;51.970;5.650;2023-02-28T06:35:03;103100;;;3.59008;76.5
70943;BME280;59154;51.970;5.650;2023-02-28T06:40:04;103100;;;3.48329;76.6
70943;BME280;59154;51.970;5.650;2023-02-28T06:45:03;103100;;;3.45786;76.0
70943;BME280;59154;51.970;5.650;2023-02-28T06:50:03;103100;;;3.56465;75.6
70943;BME280;59154;51.970;5.650;2023-02-28T06:55:03;103100;;;3.56974;75.3
70943;BME280;59154;51.970;5.650;2023-02-28T07:00:06;103100;;;3.53922;75.1
70943;BME280;59154;51.970;5.650;2023-02-28T07:05:03;103100;;;3.64601;74.1
70943;BME280;59154;51.970;5.650;2023-02-28T07:10:03;103100;;;3.94096;74.2
70943;BME280;59154;51.970;5.650;2023-02-28T07:15:02;103200;;;4.11894;73.6
70943;BME280;59154;51.970;5.650;2023-02-28T07:20:03;103200;;;4.01723;72.8
70943;BME280;59154;51.970;5.650;2023-02-28T07:25:03;103200;;;4.0274;71.7
70943;BME280;59154;51.970;5.650;2023-02-28T07:30:03;103200;;;3.98672;71.4
70943;BME280;59154;51.970;5.650;2023-02-28T07:35:03;103200;;;3.9613;71.5
70943;BME280;59154;51.970;5.650;2023-02-28T07:40:05;103200;;;4.00198;71.2
70943;BME280;59154;51.970;5.650;2023-02-28T07:45:03;103200;;;4.04775;70.9
70943;BME280;59154;51.970;5.650;2023-02-28T07:50:03;103200;;;4.25624;70.3
70943;BME280;59154;51.970;5.650;2023-02-28T07:55:04;103200;;;4.39354;69.1
70943;BME280;59154;51.970;5.650;2023-02-28T08:00:04;103200;;;4.43422;68.6
70943;BME280;59154;51.970;5.650;2023-02-28T08:05:03;103200;;;4.65797;67.8
70943;BME280;59154;51.970;5.650;2023-02-28T08:10:03;103200;;;4.70374;64.7
70943;BME280;59154;51.970;5.650;2023-02-28T08:15:03;103200;;;4.66814;57.5
70943;BME280;59154;51.970;5.650;2023-02-28T08:20:03;103200;;;4.8919;57.4
70943;BME280;59154;51.970;5.650;2023-02-28T08:25:02;103200;;;5.20718;54.6
70943;BME280;59154;51.970;5.650;2023-02-28T08:30:04;103200;;;5.36991;54.4
70943;BME280;59154;51.970;5.650;2023-02-28T08:35:04;103200;;;5.04445;53.9
70943;BME280;59154;51.970;5.650;2023-02-28T08:40:03;103200;;;4.82579;52.6
70943;BME280;59154;51.970;5.650;2023-02-28T08:45:03;103200;;;4.85121;54.4
70943;BME280;59154;51.970;5.650;2023-02-28T08:50:04;103200;;;4.70374;53.4
70943;BME280;59154;51.970;5.650;2023-02-28T08:55:03;103200;;;5.00886;53.6
70943;BME280;59154;51.970;5.650;2023-02-28T09:00:04;103200;;;5.00886;53.0
70943;BME280;59154;51.970;5.650;2023-02-28T09:05:03;103200;;;4.60712;54.8
70943;BME280;59154;51.970;5.650;2023-02-28T09:10:03;103200;;;4.33252;52.9
70943;BME280;59154;51.970;5.650;2023-02-28T09:15:04;103200;;;4.5105;53.0
70943;BME280;59154;51.970;5.650;2023-02-28T09:20:04;103200;;;4.57152;52.3
70943;BME280;59154;51.970;5.650;2023-02-28T09:25:03;103200;;;4.63763;51.0
70943;BME280;59154;51.970;5.650;2023-02-28T09:30:04;103200;;;4.39863;50.4
70943;BME280;59154;51.970;5.650;2023-02-28T09:35:03;103200;;;4.52576;50.4
70943;BME280;59154;51.970;5.650;2023-02-28T09:40:04;103200;;;4.30709;49.2
70943;BME280;59154;51.970;5.650;2023-02-28T09:45:10;103200;;;4.44948;50.6
70943;BME280;59154;51.970;5.650;2023-02-28T09:50:15;103200;;;4.6478;50.4
70943;BME280;59154;51.970;5.650;2023-02-28T09:55:19;103200;;;4.67832;50.7
70943;BME280;59154;51.970;5.650;2023-02-28T10:00:10;103200;;;4.85121;51.5
70943;BME280;59154;51.970;5.650;2023-02-28T10:05:07;103200;;;4.8207;50.0
70943;BME280;59154;51.970;5.650;2023-02-28T10:10:06;103200;;;4.74442;49.7
70943;BME280;59154;51.970;5.650;2023-02-28T10:15:03;103200;;;4.75968;49.4
70943;BME280;59154;51.970;5.650;2023-02-28T10:20:09;103200;;;4.8207;49.0
70943;BME280;59154;51.970;5.650;2023-02-28T10:25:17;103200;;;4.89698;49.4
70943;BME280;59154;51.970;5.650;2023-02-28T10:30:04;103200;;;5.0292;49.7
70943;BME280;59154;51.970;5.650;2023-02-28T10:35:14;103200;;;4.97326;49.9
70943;BME280;59154;51.970;5.650;2023-02-28T10:40:04;103200;;;4.97326;49.3
70943;BME280;59154;51.970;5.650;2023-02-28T10:45:11;103200;;;5.12582;50.1
70943;BME280;59154;51.970;5.650;2023-02-28T10:50:03;103200;;;5.06988;49.5
70943;BME280;59154;51.970;5.650;2023-02-28T10:55:21;103100;;;5.15125;49.3
70943;BME280;59154;51.970;5.650;2023-02-28T11:00:15;103200;;;5.25295;50.3
70943;BME280;59154;51.970;5.650;2023-02-28T11:05:23;103100;;;5.15125;49.2
70943;BME280;59154;51.970;5.650;2023-02-28T11:10:04;103100;;;5.18176;49.3
70943;BME280;59154;51.970;5.650;2023-02-28T11:15:05;103100;;;5.34957;49.9
70943;BME280;59154;51.970;5.650;2023-02-28T11:20:06;103100;;;5.42585;49.7
70943;BME280;59154;51.970;5.650;2023-02-28T11:25:07;103100;;;5.57333;49.6
70943;BME280;59154;51.970;5.650;2023-02-28T11:30:03;103100;;;5.78182;49.8
70943;BME280;59154;51.970;5.650;2023-02-28T11:35:16;103100;;;5.63435;50.1
70943;BME280;59154;51.970;5.650;2023-02-28T11:40:08;103100;;;5.7564;50.6
70943;BME280;59154;51.970;5.650;2023-02-28T11:45:12;103100;;;5.82251;49.6
70943;BME280;59154;51.970;5.650;2023-02-28T11:50:16;103100;;;5.86319;49.1
70943;BME280;59154;51.970;5.650;2023-02-28T11:55:13;103100;;;6.08186;50.3
70943;BME280;59154;51.970;5.650;2023-02-28T12:00:11;103100;;;5.86319;48.7
70943;BME280;59154;51.970;5.650;2023-02-28T12:05:14;103100;;;6.10728;49.2
70943;BME280;59154;51.970;5.650;2023-02-28T12:10:15;103100;;;6.07677;48.1
70943;BME280;59154;51.970;5.650;2023-02-28T12:15:16;103100;;;6.09203;48.3
70943;BME280;59154;51.970;5.650;2023-02-28T12:20:14;103100;;;6.02083;48.1
70943;BME280;59154;51.970;5.650;2023-02-28T12:30:04;103100;;;6.0666;47.6
70943;BME280;59154;51.970;5.650;2023-02-28T12:35:06;103100;;;6.1022;46.7
70943;BME280;59154;51.970;5.650;2023-02-28T12:40:06;103100;;;6.23442;47.4
70943;BME280;59154;51.970;5.650;2023-02-28T12:45:07;103100;;;6.3463;47.2
70943;BME280;59154;51.970;5.650;2023-02-28T12:50:08;103100;;;6.38698;47.3
70943;BME280;59154;51.970;5.650;2023-02-28T12:55:06;103100;;;6.46326;46.6
70943;BME280;59154;51.970;5.650;2023-02-28T13:00:09;103000;;;6.47852;46.5
70943;BME280;59154;51.970;5.650;2023-02-28T13:10:04;103000;;;6.36664;46.4
70943;BME280;59154;51.970;5.650;2023-02-28T13:15:07;103000;;;6.38189;46.2
70943;BME280;59154;51.970;5.650;2023-02-28T13:20:03;103000;;;6.46326;45.8
70943;BME280;59154;51.970;5.650;2023-02-28T13:25:03;103000;;;6.52428;45.5
70943;BME280;59154;51.970;5.650;2023-02-28T13:31:07;103000;;;6.70227;45.7
70943;BME280;59154;51.970;5.650;2023-02-28T13:35:38;103000;;;6.83449;45.0
70943;BME280;59154;51.970;5.650;2023-02-28T13:40:28;103000;;;6.92094;46.1
70943;BME280;59154;51.970;5.650;2023-02-28T13:45:34;103000;;;6.89043;45.3
70943;BME280;59154;51.970;5.650;2023-02-28T13:50:37;103000;;;6.92603;45.8
70943;BME280;59154;51.970;5.650;2023-02-28T13:55:19;103000;;;6.98705;44.4
70943;BME280;59154;51.970;5.650;2023-02-28T14:00:16;103000;;;7.03791;46.0
70943;BME280;59154;51.970;5.650;2023-02-28T14:05:05;103000;;;6.85483;44.7
70943;BME280;59154;51.970;5.650;2023-02-28T14:10:05;103000;;;6.9362;44.6
70943;BME280;59154;51.970;5.650;2023-02-28T14:15:04;103000;;;6.79381;45.2
70943;BME280;59154;51.970;5.650;2023-02-28T14:20:03;103000;;;6.96163;45.4
70943;BME280;59154;51.970;5.650;2023-02-28T14:25:11;103000;;;7.06842;44.9
70943;BME280;59154;51.970;5.650;2023-02-28T14:30:15;103000;;;7.19555;44.4
70943;BME280;59154;51.970;5.650;2023-02-28T14:35:16;103000;;;7.26166;44.6
70943;BME280;59154;51.970;5.650;2023-02-28T14:40:04;103000;;;7.08876;45.1
70943;BME280;59154;51.970;5.650;2023-02-28T14:45:03;103000;;;7.14979;45.4
70943;BME280;59154;51.970;5.650;2023-02-28T14:50:04;103000;;;7.01757;44.8
70943;BME280;59154;51.970;5.650;2023-02-28T14:55:05;103000;;;7.05825;45.2
70943;BME280;59154;51.970;5.650;2023-02-28T15:00:11;103000;;;7.18538;45.0
70943;BME280;59154;51.970;5.650;2023-02-28T15:05:20;103000;;;7.10402;44.5
70943;BME280;59154;51.970;5.650;2023-02-28T15:10:15;103000;;;7.03282;44.2
70943;BME280;59154;51.970;5.650;2023-02-28T15:15:03;103000;;;7.15487;44.5
70943;BME280;59154;51.970;5.650;2023-02-28T15:20:03;103000;;;7.21081;44.6
70943;BME280;59154;51.970;5.650;2023-02-28T15:25:04;103000;;;7.15996;44.9
70943;BME280;59154;51.970;5.650;2023-02-28T15:30:06;103000;;;7.23115;44.7
70943;BME280;59154;51.970;5.650;2023-02-28T15:35:19;103000;;;7.34303;44.7
70943;BME280;59154;51.970;5.650;2023-02-28T15:40:12;103000;;;7.26166;44.8
70943;BME280;59154;51.970;5.650;2023-02-28T15:45:03;103000;;;7.29726;44.7
70943;BME280;59154;51.970;5.650;2023-02-28T15:50:09;103000;;;7.29218;45.0
70943;BME280;59154;51.970;5.650;2023-02-28T15:55:09;103000;;;7.11927;44.5
70943;BME280;59154;51.970;5.650;2023-02-28T16:00:06;103000;;;7.17013;45.1
70943;BME280;59154;51.970;5.650;2023-02-28T16:05:19;103000;;;7.14979;45.3
70943;BME280;59154;51.970;5.650;2023-02-28T16:10:04;103000;;;6.94637;45.5
70943;BME280;59154;51.970;5.650;2023-02-28T16:15:07;103000;;;7.05825;45.3
70943;BME280;59154;51.970;5.650;2023-02-28T16:20:11;103000;;;6.98197;45.4
70943;BME280;59154;51.970;5.650;2023-02-28T16:25:03;103000;;;7.05825;45.7
70943;BME280;59154;51.970;5.650;2023-02-28T16:30:06;103000;;;6.99722;45.3
70943;BME280;59154;51.970;5.650;2023-02-28T16:35:05;103000;;;7.04808;45.9
70943;BME280;59154;51.970;5.650;2023-02-28T16:40:03;103000;;;6.9006;46.1
70943;BME280;59154;51.970;5.650;2023-02-28T16:45:02;103000;;;6.73278;46.3
70943;BME280;59154;51.970;5.650;2023-02-28T16:50:09;103000;;;6.71244;46.9
70943;BME280;59154;51.970;5.650;2023-02-28T16:55:03;103000;;;6.65142;46.8
70943;BME280;59154;51.970;5.650;2023-02-28T17:00:06;103000;;;6.60056;47.3
70943;BME280;59154;51.970;5.650;2023-02-28T17:05:03;103000;;;6.25984;48.0
70943;BME280;59154;51.970;5.650;2023-02-28T17:10:09;103000;;;6.12763;48.3
70943;BME280;59154;51.970;5.650;2023-02-28T17:15:03;103000;;;6.04118;48.5
70943;BME280;59154;51.970;5.650;2023-02-28T17:20:04;103000;;;5.97507;48.9
70943;BME280;59154;51.970;5.650;2023-02-28T17:25:03;103000;;;5.86827;48.8
70943;BME280;59154;51.970;5.650;2023-02-28T17:30:03;103000;;;5.87336;48.8
70943;BME280;59154;51.970;5.650;2023-02-28T17:35:02;103000;;;5.68012;48.8
70943;BME280;59154;51.970;5.650;2023-02-28T17:40:04;103000;;;5.69537;49.0
70943;BME280;59154;51.970;5.650;2023-02-28T17:45:03;103000;;;5.49196;49.5
70943;BME280;59154;51.970;5.650;2023-02-28T17:50:03;103000;;;5.43602;50.2
70943;BME280;59154;51.970;5.650;2023-02-28T17:55:04;103000;;;5.40551;49.8
70943;BME280;59154;51.970;5.650;2023-02-28T18:00:04;103100;;;5.3038;49.8
70943;BME280;59154;51.970;5.650;2023-02-28T18:05:04;103100;;;5.1665;50.1
70943;BME280;59154;51.970;5.650;2023-02-28T18:10:04;103100;;;5.12073;50.5
70943;BME280;59154;51.970;5.650;2023-02-28T18:15:04;103100;;;5.16142;50.7
70943;BME280;59154;51.970;5.650;2023-02-28T18:20:04;103100;;;5.11565;50.9
70943;BME280;59154;51.970;5.650;2023-02-28T18:25:04;103100;;;4.96309;50.8
70943;BME280;59154;51.970;5.650;2023-02-28T18:30:04;103100;;;4.90715;51.3
70943;BME280;59154;51.970;5.650;2023-02-28T18:35:02;103100;;;4.91732;51.0
70943;BME280;59154;51.970;5.650;2023-02-28T18:40:04;103100;;;4.91732;51.4
70943;BME280;59154;51.970;5.650;2023-02-28T18:45:03;103100;;;4.77494;52.0
70943;BME280;59154;51.970;5.650;2023-02-28T18:50:03;103100;;;4.68849;51.8
70943;BME280;59154;51.970;5.650;2023-02-28T18:55:02;103100;;;4.6834;51.8
70943;BME280;59154;51.970;5.650;2023-02-28T19:00:04;103100;;;4.60204;51.8
70943;BME280;59154;51.970;5.650;2023-02-28T19:05:03;103100;;;4.55627;51.9
70943;BME280;59154;51.970;5.650;2023-02-28T19:10:03;103100;;;4.42405;52.0
70943;BME280;59154;51.970;5.650;2023-02-28T19:15:04;103100;;;4.31218;52.3
70943;BME280;59154;51.970;5.650;2023-02-28T19:20:03;103100;;;4.2359;52.7
70943;BME280;59154;51.970;5.650;2023-02-28T19:25:02;103100;;;4.07826;53.3
70943;BME280;59154;51.970;5.650;2023-02-28T19:30:04;103100;;;4.13928;53.4
70943;BME280;59154;51.970;5.650;2023-02-28T19:35:02;103100;;;4.10877;53.7
70943;BME280;59154;51.970;5.650;2023-02-28T19:40:03;103100;;;4.11894;54.1
70943;BME280;59154;51.970;5.650;2023-02-28T19:45:03;103100;;;3.98672;54.4
70943;BME280;59154;51.970;5.650;2023-02-28T19:50:03;103100;;;3.99181;54.4
70943;BME280;59154;51.970;5.650;2023-02-28T19:55:02;103100;;;3.94604;54.6
70943;BME280;59154;51.970;5.650;2023-02-28T20:00:04;103100;;;3.93079;54.7
70943;BME280;59154;51.970;5.650;2023-02-28T20:05:03;103100;;;3.80366;55.2
70943;BME280;59154;51.970;5.650;2023-02-28T20:10:03;103100;;;3.70704;55.7
70943;BME280;59154;51.970;5.650;2023-02-28T20:15:03;103100;;;3.63076;56.0
70943;BME280;59154;51.970;5.650;2023-02-28T20:20:04;103100;;;3.6155;56.1
70943;BME280;59154;51.970;5.650;2023-02-28T20:25:03;103100;;;3.52397;56.8
70943;BME280;59154;51.970;5.650;2023-02-28T20:30:04;103100;;;3.33073;56.9
70943;BME280;59154;51.970;5.650;2023-02-28T20:35:03;103100;;;3.31039;57.3
70943;BME280;59154;51.970;5.650;2023-02-28T20:40:04;103100;;;3.30531;57.5
70943;BME280;59154;51.970;5.650;2023-02-28T20:45:03;103100;;;3.2036;57.8
70943;BME280;59154;51.970;5.650;2023-02-28T20:50:03;103100;;;3.17309;58.1
70943;BME280;59154;51.970;5.650;2023-02-28T20:55:04;103100;;;3.08156;59.0
70943;BME280;59154;51.970;5.650;2023-02-28T21:00:05;103100;;;3.06122;59.4
70943;BME280;59154;51.970;5.650;2023-02-28T21:05:02;103100;;;2.95443;59.1
70943;BME280;59154;51.970;5.650;2023-02-28T21:10:03;103100;;;2.89849;59.4
70943;BME280;59154;51.970;5.650;2023-02-28T21:15:03;103100;;;2.87307;59.6
70943;BME280;59154;51.970;5.650;2023-02-28T21:20:03;103100;;;2.78662;59.8
70943;BME280;59154;51.970;5.650;2023-02-28T21:25:02;103100;;;2.78662;60.0
70943;BME280;59154;51.970;5.650;2023-02-28T21:30:03;103100;;;2.63406;60.1
70943;BME280;59154;51.970;5.650;2023-02-28T21:35:02;103100;;;2.62389;60.5
70943;BME280;59154;51.970;5.650;2023-02-28T21:40:04;103100;;;2.57304;61.3
70943;BME280;59154;51.970;5.650;2023-02-28T21:45:03;103100;;;2.51202;61.8
70943;BME280;59154;51.970;5.650;2023-02-28T21:50:04;103100;;;2.53236;61.7
70943;BME280;59154;51.970;5.650;2023-02-28T21:55:02;103100;;;2.43574;61.6
70943;BME280;59154;51.970;5.650;2023-02-28T22:00:04;103100;;;2.451;61.7
70943;BME280;59154;51.970;5.650;2023-02-28T22:05:03;103100;;;2.33913;61.9
70943;BME280;59154;51.970;5.650;2023-02-28T22:10:03;103100;;;2.30862;62.0
70943;BME280;59154;51.970;5.650;2023-02-28T22:15:03;103100;;;2.18657;62.4
70943;BME280;59154;51.970;5.650;2023-02-28T22:20:03;103100;;;2.20691;62.8
70943;BME280;59154;51.970;5.650;2023-02-28T22:25:02;103100;;;2.15606;63.0
70943;BME280;59154;51.970;5.650;2023-02-28T22:30:03;103100;;;2.06962;63.1
70943;BME280;59154;51.970;5.650;2023-02-28T22:35:02;103100;;;2.11538;63.4
70943;BME280;59154;51.970;5.650;2023-02-28T22:40:05;103100;;;2.03402;63.5
70943;BME280;59154;51.970;5.650;2023-02-28T22:45:03;103100;;;1.92723;63.5
70943;BME280;59154;51.970;5.650;2023-02-28T22:50:03;103100;;;1.94249;63.7
70943;BME280;59154;51.970;5.650;2023-02-28T22:55:02;103100;;;1.89672;63.9
70943;BME280;59154;51.970;5.650;2023-02-28T23:00:07;103100;;;1.93232;64.2
70943;BME280;59154;51.970;5.650;2023-02-28T23:05:02;103100;;;1.9374;64.1
70943;BME280;59154;51.970;5.650;2023-02-28T23:10:04;103100;;;1.92723;64.0
70943;BME280;59154;51.970;5.650;2023-02-28T23:15:03;103100;;;1.84587;64.6
70943;BME280;59154;51.970;5.650;2023-02-28T23:20:04;103100;;;1.80011;64.7
70943;BME280;59154;51.970;5.650;2023-02-28T23:25:03;103100;;;1.734;66.2
70943;BME280;59154;51.970;5.650;2023-02-28T23:30:04;103100;;;1.84079;66.3
70943;BME280;59154;51.970;5.650;2023-02-28T23:35:02;103100;;;1.8357;66.3
70943;BME280;59154;51.970;5.650;2023-02-28T23:40:05;103100;;;1.57636;67.2
70943;BME280;59154;51.970;5.650;2023-02-28T23:45:03;103100;;;1.38821;67.4
70943;BME280;59154;51.970;5.650;2023-02-28T23:50:03;103100;;;1.27126;67.9
70943;BME280;59154;51.970;5.650;2023-02-28T23:55:02;103100;;;1.34753;67.8
